createdAt,value
2023-03-10T00:02:11.201Z,93361.00
2023-03-10T00:06:11.271Z,93365.00
2023-03-10T00:10:11.404Z,93359.00
2023-03-10T00:14:11.493Z,93342.00
2023-03-10T00:18:11.654Z,93336.00
2023-03-10T00:22:11.796Z,93336.00
2023-03-10T00:26:12.018Z,93342.00
2023-03-10T00:30:12.202Z,93336.00
2023-03-10T00:34:12.343Z,93328.00
2023-03-10T00:38:12.571Z,93322.00
2023-03-10T00:42:12.706Z,93314.00
2023-03-10T00:46:12.943Z,93309.00
2023-03-10T00:50:13.007Z,93299.00
2023-03-10T00:54:13.135Z,93289.00
2023-03-10T00:58:13.277Z,93287.00
2023-03-10T01:02:13.361Z,93271.00
2023-03-10T01:06:13.413Z,93258.00
2023-03-10T01:10:13.554Z,93240.00
2023-03-10T01:14:13.577Z,93238.00
2023-03-10T01:18:13.603Z,93234.00
2023-03-10T01:22:13.597Z,93218.00
2023-03-10T01:26:13.508Z,93214.00
2023-03-10T01:30:13.487Z,93212.00
2023-03-10T01:34:13.464Z,93201.00
2023-03-10T01:38:13.444Z,93195.00
2023-03-10T01:42:13.418Z,93189.00
2023-03-10T01:46:13.365Z,93167.00
2023-03-10T01:50:13.308Z,93160.00
2023-03-10T01:54:13.295Z,93148.00
2023-03-10T01:58:13.224Z,93134.00
2023-03-10T02:02:13.290Z,93130.00
2023-03-10T02:06:14.441Z,93110.00
2023-03-10T02:10:13.095Z,93114.00
2023-03-10T02:14:13.163Z,93103.00
2023-03-10T02:18:13.075Z,93107.00
2023-03-10T02:22:13.022Z,93097.00
2023-03-10T02:26:12.940Z,93068.00
2023-03-10T02:30:12.934Z,93072.00
2023-03-10T02:34:12.911Z,93081.00
2023-03-10T02:38:12.888Z,93077.00
2023-03-10T02:42:12.884Z,93052.00
2023-03-10T02:46:12.893Z,93054.00
2023-03-10T02:50:12.743Z,93042.00
2023-03-10T02:54:12.685Z,93034.00
2023-03-10T02:58:12.655Z,93048.00
2023-03-10T03:02:12.942Z,93028.00
2023-03-10T03:06:12.604Z,93022.00
2023-03-10T03:10:12.527Z,93018.00
2023-03-10T03:14:12.502Z,93017.00
2023-03-10T03:18:12.485Z,93015.00
2023-03-10T03:22:12.455Z,93009.00
2023-03-10T03:26:12.391Z,92999.00
2023-03-10T03:30:12.390Z,92993.00
2023-03-10T03:34:12.336Z,92985.00
2023-03-10T03:38:12.260Z,92993.00
2023-03-10T03:42:12.264Z,92991.00
2023-03-10T03:46:12.276Z,92977.00
2023-03-10T03:50:12.201Z,92979.00
2023-03-10T03:54:12.156Z,92977.00
2023-03-10T03:58:12.090Z,92971.00
2023-03-10T04:02:12.087Z,92968.00
2023-03-10T04:06:12.508Z,92977.00
2023-03-10T04:10:12.026Z,92971.00
2023-03-10T04:14:11.995Z,92952.00
2023-03-10T04:18:11.932Z,92952.00
2023-03-10T04:22:11.892Z,92960.00
2023-03-10T04:26:11.876Z,92954.00
2023-03-10T04:30:11.869Z,92936.00
2023-03-10T04:34:11.832Z,92936.00
2023-03-10T04:38:11.819Z,92944.00
2023-03-10T04:42:11.796Z,92946.00
2023-03-10T04:46:11.807Z,92936.00
2023-03-10T04:50:11.715Z,92938.00
2023-03-10T04:54:11.656Z,92946.00
2023-03-10T04:58:11.630Z,92950.00
2023-03-10T05:02:11.638Z,92962.00
2023-03-10T05:06:11.536Z,92948.00
2023-03-10T05:10:11.558Z,92962.00
2023-03-10T05:14:11.483Z,92936.00
2023-03-10T05:18:11.448Z,92952.00
2023-03-10T05:22:11.440Z,92948.00
2023-03-10T05:26:11.402Z,92952.00
2023-03-10T05:30:11.322Z,92950.00
2023-03-10T05:34:11.559Z,92954.00
2023-03-10T05:38:11.233Z,92950.00
2023-03-10T05:42:11.206Z,92946.00
2023-03-10T05:46:11.228Z,92938.00
2023-03-10T05:50:11.117Z,92930.00
2023-03-10T05:54:11.188Z,92926.00
2023-03-10T05:58:11.081Z,92928.00
2023-03-10T06:02:11.076Z,92917.00
2023-03-10T06:06:11.512Z,92917.00
2023-03-10T06:10:11.047Z,92915.00
2023-03-10T06:14:11.274Z,92913.00
2023-03-10T06:18:11.298Z,92917.00
2023-03-10T06:22:11.378Z,92911.00
2023-03-10T06:26:11.458Z,92915.00
2023-03-10T06:30:11.529Z,92907.00
2023-03-10T06:34:11.611Z,92913.00
2023-03-10T06:38:12.564Z,92913.00
2023-03-10T06:42:12.086Z,92913.00
2023-03-10T06:46:12.164Z,92921.00
2023-03-10T06:50:12.186Z,92923.00
2023-03-10T06:54:12.171Z,92930.00
2023-03-10T06:58:12.158Z,92930.00
2023-03-10T07:02:12.618Z,92932.00
2023-03-10T07:06:12.042Z,92934.00
2023-03-10T07:10:12.004Z,92952.00
2023-03-10T07:14:11.988Z,92940.00
2023-03-10T07:18:11.882Z,92956.00
2023-03-10T07:22:11.940Z,92950.00
2023-03-10T07:26:11.865Z,92942.00
2023-03-10T07:30:11.880Z,92940.00
2023-03-10T07:34:11.796Z,92958.00
2023-03-10T07:38:11.687Z,92958.00
2023-03-10T07:42:11.672Z,92950.00
2023-03-10T07:46:11.855Z,92944.00
2023-03-10T07:50:11.616Z,92950.00
2023-03-10T07:54:11.600Z,92958.00
2023-03-10T07:58:11.636Z,92956.00
2023-03-10T08:02:12.081Z,92944.00
2023-03-10T08:06:11.800Z,92936.00
2023-03-10T08:10:11.662Z,92958.00
2023-03-10T08:14:11.701Z,92950.00
2023-03-10T08:18:11.649Z,92932.00
2023-03-10T08:22:11.621Z,92923.00
2023-03-10T08:26:11.556Z,92919.00
2023-03-10T08:30:11.548Z,92923.00
2023-03-10T08:34:11.538Z,92924.00
2023-03-10T08:38:11.436Z,92907.00
2023-03-10T08:42:11.609Z,92907.00
2023-03-10T08:46:11.471Z,92903.00
2023-03-10T08:50:11.324Z,92905.00
2023-03-10T08:54:11.347Z,92909.00
2023-03-10T08:58:11.253Z,92923.00
2023-03-10T09:02:11.261Z,92915.00
2023-03-10T09:06:11.237Z,92917.00
2023-03-10T09:10:11.368Z,92917.00
2023-03-10T09:14:11.455Z,92919.00
2023-03-10T09:18:11.646Z,92917.00
2023-03-10T09:22:12.469Z,92911.00
2023-03-10T09:26:12.187Z,92911.00
2023-03-10T09:30:12.349Z,92905.00
2023-03-10T09:34:12.482Z,92881.00
2023-03-10T09:38:12.615Z,92871.00
2023-03-10T09:42:13.328Z,92869.00
2023-03-10T09:46:13.077Z,92852.00
2023-03-10T09:50:13.065Z,92856.00
2023-03-10T09:54:12.950Z,92852.00
2023-03-10T09:58:12.908Z,92846.00
2023-03-10T10:02:12.888Z,92827.00
2023-03-10T10:06:12.877Z,92823.00
2023-03-10T10:10:12.832Z,92813.00
2023-03-10T10:14:15.894Z,92801.00
2023-03-10T10:18:19.641Z,92793.00
2023-03-10T10:22:13.688Z,92791.00
2023-03-10T10:26:12.635Z,92785.00
2023-03-10T10:30:12.572Z,92784.00
2023-03-10T10:34:15.690Z,92776.00
2023-03-10T10:38:12.559Z,92778.00
2023-03-10T10:42:12.510Z,92789.00
2023-03-10T10:46:12.575Z,92784.00
2023-03-10T10:50:12.468Z,92768.00
2023-03-10T10:54:12.432Z,92770.00
2023-03-10T10:58:12.358Z,92762.00
2023-03-10T11:02:12.425Z,92748.00
2023-03-10T11:06:12.315Z,92744.00
2023-03-10T11:10:12.296Z,92737.00
2023-03-10T11:14:12.296Z,92735.00
2023-03-10T11:18:12.472Z,92729.00
2023-03-10T11:22:12.619Z,92731.00
2023-03-10T11:26:15.014Z,92735.00
2023-03-10T11:30:13.232Z,92742.00
2023-03-10T11:34:12.829Z,92746.00
2023-03-10T11:38:12.896Z,92748.00
2023-03-10T11:42:13.000Z,92756.00
2023-03-10T11:46:13.370Z,92754.00
2023-03-10T11:50:13.225Z,92750.00
2023-03-10T11:54:13.676Z,92746.00
2023-03-10T11:58:13.184Z,92744.00
2023-03-10T12:02:13.097Z,92738.00
2023-03-10T12:06:13.035Z,92737.00
2023-03-10T12:10:12.986Z,92733.00
2023-03-10T12:14:12.913Z,92723.00
2023-03-10T12:18:13.269Z,92715.00
2023-03-10T12:22:12.881Z,92713.00
2023-03-10T12:26:12.856Z,92709.00
2023-03-10T12:30:12.816Z,92721.00
2023-03-10T12:34:13.048Z,92727.00
2023-03-10T12:38:13.082Z,92733.00
2023-03-10T12:42:13.269Z,92731.00
2023-03-10T12:46:13.404Z,92731.00
2023-03-10T12:50:13.552Z,92717.00
2023-03-10T12:54:13.664Z,92693.00
2023-03-10T12:58:13.676Z,92685.00
2023-03-10T13:02:13.747Z,92687.00
2023-03-10T13:06:13.776Z,92676.00
2023-03-10T13:10:13.856Z,92664.00
2023-03-10T13:14:13.855Z,92654.00
2023-03-10T13:18:13.870Z,92658.00
2023-03-10T13:22:13.897Z,92670.00
2023-03-10T13:26:13.920Z,92672.00
2023-03-10T13:30:13.939Z,92685.00
2023-03-10T13:34:13.986Z,92691.00
2023-03-10T13:38:14.011Z,92705.00
2023-03-10T13:42:14.033Z,92697.00
2023-03-10T13:46:14.102Z,92707.00
2023-03-10T13:50:14.096Z,92709.00
2023-03-10T13:54:14.108Z,92703.00
2023-03-10T13:58:14.130Z,92703.00
2023-03-10T14:02:14.174Z,92705.00
2023-03-10T14:06:14.188Z,92701.00
2023-03-10T14:10:14.269Z,92701.00
2023-03-10T14:14:14.311Z,92713.00
2023-03-10T14:18:14.381Z,92729.00
2023-03-10T14:22:14.450Z,92758.00
2023-03-10T14:26:14.518Z,92760.00
2023-03-10T14:30:14.619Z,92772.00
2023-03-10T14:34:14.640Z,92764.00
2023-03-10T14:38:14.712Z,92768.00
2023-03-10T14:42:14.797Z,92778.00
2023-03-10T14:46:15.349Z,92787.00
2023-03-10T14:50:14.897Z,92805.00
2023-03-10T14:54:14.987Z,92807.00
2023-03-10T14:58:15.090Z,92797.00
2023-03-10T15:02:15.148Z,92795.00
2023-03-10T15:06:15.205Z,92784.00
2023-03-10T15:10:15.344Z,92772.00
2023-03-10T15:14:15.442Z,92784.00
2023-03-10T15:18:15.505Z,92789.00
2023-03-10T15:22:15.584Z,92793.00
2023-03-10T15:26:15.644Z,92799.00
2023-03-10T15:30:15.784Z,92819.00
2023-03-10T15:34:15.839Z,92827.00
2023-03-10T15:38:15.933Z,92848.00
2023-03-10T15:42:16.034Z,92852.00
2023-03-10T15:46:16.137Z,92858.00
2023-03-10T15:50:16.284Z,92860.00
2023-03-10T15:54:16.357Z,92862.00
2023-03-10T15:58:16.352Z,92864.00
2023-03-10T16:02:16.419Z,92862.00
2023-03-10T16:06:16.296Z,92866.00
2023-03-10T16:10:16.257Z,92862.00
2023-03-10T16:14:16.190Z,92875.00
2023-03-10T16:18:16.167Z,92875.00
2023-03-10T16:22:16.129Z,92875.00
2023-03-10T16:26:16.123Z,92885.00
2023-03-10T16:30:16.244Z,92879.00
2023-03-10T16:34:16.008Z,92885.00
2023-03-10T16:38:16.203Z,92885.00
2023-03-10T16:42:16.345Z,92889.00
2023-03-10T16:46:16.492Z,92903.00
2023-03-10T16:50:16.649Z,92919.00
2023-03-10T16:54:16.786Z,92926.00
2023-03-10T16:58:16.964Z,92928.00
2023-03-10T17:02:17.110Z,92940.00
2023-03-10T17:06:17.222Z,92948.00
2023-03-10T17:10:17.181Z,92942.00
2023-03-10T17:14:17.183Z,92940.00
2023-03-10T17:21:01.235Z,92932.00
2023-03-10T17:25:01.202Z,92934.00
2023-03-10T17:29:01.143Z,92936.00
2023-03-10T17:33:01.672Z,92932.00
2023-03-10T17:37:01.607Z,92954.00
2023-03-10T17:41:01.565Z,92973.00
2023-03-10T17:45:01.549Z,92981.00
2023-03-10T17:49:01.528Z,92964.00
2023-03-10T17:53:01.492Z,92958.00
2023-03-10T17:57:01.427Z,92973.00
2023-03-10T18:01:01.408Z,92979.00
2023-03-10T18:05:01.382Z,93001.00
2023-03-10T18:09:01.413Z,93020.00
2023-03-10T18:13:01.584Z,93060.00
2023-03-10T18:17:01.669Z,93050.00
2023-03-10T18:21:01.899Z,93048.00
2023-03-10T18:25:01.881Z,93062.00
2023-03-10T18:29:01.891Z,93042.00
2023-03-10T18:33:01.792Z,93042.00
2023-03-10T18:37:01.762Z,93048.00
2023-03-10T18:41:01.668Z,93046.00
2023-03-10T18:45:01.661Z,93056.00
2023-03-10T18:49:01.639Z,93048.00
2023-03-10T18:53:01.605Z,93050.00
2023-03-10T18:57:01.535Z,93038.00
2023-03-10T19:01:01.508Z,93040.00
2023-03-10T19:05:01.632Z,93062.00
2023-03-10T19:09:01.617Z,93048.00
2023-03-10T19:13:01.588Z,93038.00
2023-03-10T19:17:01.562Z,93022.00
2023-03-10T19:21:01.504Z,93030.00
2023-03-10T19:25:01.470Z,93015.00
2023-03-10T19:29:01.449Z,93026.00
2023-03-10T19:33:01.412Z,93036.00
2023-03-10T19:37:01.341Z,93015.00
2023-03-10T19:41:01.317Z,93034.00
2023-03-10T19:45:01.349Z,93015.00
2023-03-10T19:49:01.325Z,93009.00
2023-03-10T19:53:01.236Z,93005.00
2023-03-10T19:57:01.234Z,93024.00
2023-03-10T20:01:01.229Z,93034.00
2023-03-10T20:05:01.141Z,93062.00
2023-03-10T20:09:01.069Z,93066.00
2023-03-10T20:13:01.065Z,93073.00
2023-03-10T20:17:01.056Z,93064.00
2023-03-10T20:21:01.025Z,93062.00
2023-03-10T20:25:01.153Z,93020.00
2023-03-10T20:29:01.881Z,93022.00
2023-03-10T20:33:01.111Z,93022.00
2023-03-10T20:37:01.089Z,93028.00
2023-03-10T20:41:01.016Z,93015.00
2023-03-10T20:45:00.995Z,93017.00
2023-03-10T20:49:00.969Z,93032.00
2023-03-10T20:53:00.928Z,93048.00
2023-03-10T20:57:00.919Z,93052.00
2023-03-10T21:01:01.106Z,93058.00
2023-03-10T21:05:01.250Z,93068.00
2023-03-10T21:09:01.414Z,93085.00
2023-03-10T21:13:01.328Z,93066.00
2023-03-10T21:17:01.350Z,93068.00
2023-03-10T21:21:01.323Z,93079.00
2023-03-10T21:25:01.264Z,93060.00
2023-03-10T21:29:01.538Z,93073.00
2023-03-10T21:33:01.210Z,93068.00
2023-03-10T21:37:01.149Z,93097.00
2023-03-10T21:41:01.126Z,93083.00
2023-03-10T21:45:01.151Z,93083.00
2023-03-10T21:49:01.029Z,93101.00
2023-03-10T21:53:01.193Z,93118.00
2023-03-10T21:57:01.023Z,93095.00
2023-03-10T22:01:00.881Z,93118.00
2023-03-10T22:05:00.928Z,93128.00
2023-03-10T22:09:00.836Z,93140.00
2023-03-10T22:13:00.874Z,93130.00
2023-03-10T22:17:00.789Z,93167.00
2023-03-10T22:21:00.786Z,93179.00
2023-03-10T22:25:00.717Z,93201.00
2023-03-10T22:29:00.722Z,93212.00
2023-03-10T22:33:00.594Z,93220.00
2023-03-10T22:37:00.560Z,93234.00
2023-03-10T22:41:00.607Z,93242.00
2023-03-10T22:45:00.470Z,93228.00
2023-03-10T22:49:03.565Z,93201.00
2023-03-10T22:53:00.412Z,93211.00
2023-03-10T22:57:00.374Z,93205.00
2023-03-10T23:01:01.043Z,93201.00
2023-03-10T23:05:00.305Z,93209.00
2023-03-10T23:09:00.282Z,93207.00
2023-03-10T23:13:00.306Z,93209.00
2023-03-10T23:17:00.177Z,93205.00
2023-03-10T23:21:00.146Z,93205.00
2023-03-10T23:25:00.137Z,93216.00
2023-03-10T23:29:00.069Z,93220.00
2023-03-10T23:33:00.023Z,93238.00
2023-03-10T23:37:00.015Z,93252.00
2023-03-10T23:40:59.979Z,93259.00
2023-03-10T23:44:59.912Z,93256.00
2023-03-10T23:49:00.856Z,93254.00
2023-03-10T23:52:59.856Z,93263.00
2023-03-10T23:56:59.837Z,93291.00
